This is the latest recevied weather packets stored in our database for station/object S57D-6. If no packets are shown the sender has not sent any weather packets the latest 1 day(s).
| Time | Temp. | Humidity | Pressure | Rain* | Wind** | Luminosity | Snow |
|---|---|---|---|---|---|---|---|
| 1778105946 | 12.78° C | 91% | 1010.9 hPa | 0 mm | - | - | - |
| 1778104110 | 13.33° C | 91% | 1010.5 hPa | 0 mm | - | - | - |
| 1778103210 | 13.33° C | 91% | 1010.7 hPa | 0 mm | - | - | - |
| 1778102909 | 13.33° C | 91% | 1010.7 hPa | 0 mm | - | - | - |
| 1778099906 | 13.89° C | 91% | 1010.6 hPa | 0.51 mm | - | - | - |
| 1778099006 | 13.89° C | 90% | 1010.3 hPa | 0.51 mm | - | - | - |
| 1778098705 | 13.89° C | 89% | 1010.2 hPa | 0.51 mm | - | - | - |
| 1778097805 | 13.89° C | 89% | 1010.2 hPa | 1.02 mm | - | - | - |
| 1778095404 | 14.44° C | 88% | 1009.8 hPa | 0.51 mm | - | - | - |
| 1778094501 | 14.44° C | 88% | 1009.9 hPa | 0 mm | - | - | - |
| 1778093900 | 14.44° C | 88% | 1009.9 hPa | 0 mm | - | - | - |
| 1778093601 | 14.44° C | 88% | 1009.9 hPa | 0 mm | - | - | - |
| 1778092434 | 15° C | 87% | 1009.2 hPa | 0 mm | - | - | - |
| 1778092401 | 15° C | 87% | 1009.2 hPa | 0 mm | - | - | - |
| 1778091800 | 15° C | 87% | 1009 hPa | 0 mm | - | - | - |
| 1778091498 | 15° C | 87% | 1009 hPa | 0 mm | - | - | - |
| 1778090598 | 15.56° C | 86% | 1008.8 hPa | 0 mm | - | - | - |
| 1778090297 | 15.56° C | 85% | 1008.8 hPa | 0 mm | - | - | - |
| 1778088495 | 16.67° C | 81% | 1008.9 hPa | 0 mm | - | - | - |
| 1778088196 | 16.67° C | 81% | 1008.8 hPa | 0 mm | - | - | - |
| 1778087294 | 16.67° C | 80% | 1008.9 hPa | 0 mm | - | - | - |
| 1778086093 | 16.67° C | 81% | 1009 hPa | 0 mm | - | - | - |
| 1778085193 | 17.22° C | 80% | 1009 hPa | 0 mm | - | - | - |
| 1778083090 | 17.22° C | 83% | 1009.4 hPa | 0 mm | - | - | - |
| 1778081889 | 16.67° C | 85% | 1009.5 hPa | 0 mm | - | - | - |
* Rain latest hour (hover to see other rain measurements)
** Current wind speed in m/s (hover to see current wind gust speed)